Time;durP1;ratioP1;P1;durP2;ratioP2;P2;SDS_P1;SDS_P2;PMS_P1;PMS_P2;Temp;Humidity;BMP_temperature;BMP_pressure;BME280_temperature;BME280_humidity;BME280_pressure;Samples;Min_cycle;Max_cycle;Signal;HPM_P1;HPM_P2
2023/12/07 00:00:43;;;;;;;16.67;8.93;;;3.00;99.90;;;;;;6209768;23;20416;-55
2023/12/07 00:03:10;;;;;;;14.93;9.67;;;3.00;99.90;;;;;;6210444;23;20405;-53
2023/12/07 00:05:37;;;;;;;19.07;10.80;;;3.00;99.90;;;;;;6209977;23;20765;-53
2023/12/07 00:08:04;;;;;;;16.50;10.23;;;3.00;99.90;;;;;;6210159;23;20419;-52
2023/12/07 00:10:31;;;;;;;17.20;9.20;;;3.00;99.90;;;;;;6209965;23;20389;-51
2023/12/07 00:12:58;;;;;;;16.57;9.13;;;3.00;99.90;;;;;;6209724;23;20424;-54
2023/12/07 00:15:24;;;;;;;21.00;10.57;;;3.00;99.90;;;;;;6209407;23;20432;-57
2023/12/07 00:17:53;;;;;;;16.23;9.50;;;3.00;99.90;;;;;;6209382;23;20860;-56
2023/12/07 00:20:20;;;;;;;17.00;10.30;;;3.00;99.90;;;;;;6209443;23;20409;-55
2023/12/07 00:22:46;;;;;;;15.47;8.93;;;3.00;99.90;;;;;;6209993;23;20413;-56
2023/12/07 00:25:13;;;;;;;17.10;9.37;;;3.10;99.90;;;;;;6209686;23;20389;-56
2023/12/07 00:27:41;;;;;;;18.37;9.03;;;3.10;99.90;;;;;;6209090;23;20432;-54
2023/12/07 00:30:09;;;;;;;15.23;10.27;;;3.10;99.90;;;;;;6209979;23;20405;-54
2023/12/07 00:32:36;;;;;;;16.93;10.20;;;3.10;99.90;;;;;;6209859;23;20433;-55
2023/12/07 00:35:05;;;;;;;18.03;9.90;;;3.00;99.90;;;;;;6209892;23;20436;-53
2023/12/07 00:37:32;;;;;;;16.10;10.13;;;3.00;99.90;;;;;;6209776;23;20397;-54
2023/12/07 00:39:58;;;;;;;17.70;11.50;;;3.00;99.90;;;;;;6209697;23;20424;-51
2023/12/07 00:42:25;;;;;;;20.03;9.70;;;3.00;99.90;;;;;;6210043;23;20404;-55
2023/12/07 00:44:52;;;;;;;16.03;10.80;;;3.00;99.90;;;;;;6209074;23;20423;-53
2023/12/07 00:47:19;;;;;;;20.87;10.03;;;3.00;99.90;;;;;;6210027;23;20417;-50
2023/12/07 00:49:46;;;;;;;15.83;9.80;;;3.00;99.90;;;;;;6210166;23;20412;-56
2023/12/07 00:52:14;;;;;;;18.57;9.10;;;3.00;99.90;;;;;;6208938;23;20460;-54
2023/12/07 00:54:41;;;;;;;24.43;11.20;;;3.00;99.90;;;;;;6208888;23;20416;-55
2023/12/07 00:57:08;;;;;;;20.43;10.27;;;3.00;99.90;;;;;;6209120;23;20408;-53
2023/12/07 00:59:36;;;;;;;19.23;9.97;;;3.10;99.90;;;;;;6209632;23;20412;-57
2023/12/07 01:02:03;;;;;;;17.93;10.87;;;3.10;99.90;;;;;;6208628;23;20863;-57
2023/12/07 01:04:31;;;;;;;17.47;9.70;;;3.10;99.90;;;;;;6209490;23;20435;-58
2023/12/07 01:06:57;;;;;;;17.53;8.93;;;3.10;99.90;;;;;;6209791;23;20481;-55
2023/12/07 01:09:26;;;;;;;19.00;10.70;;;3.10;99.90;;;;;;6209323;23;20412;-58
2023/12/07 01:11:53;;;;;;;18.37;9.80;;;3.10;99.90;;;;;;6209002;23;20413;-55
2023/12/07 01:14:22;;;;;;;17.47;10.90;;;3.00;99.90;;;;;;6209425;23;20405;-56
2023/12/07 01:16:51;;;;;;;16.50;9.10;;;3.00;99.90;;;;;;6209174;23;20449;-58
2023/12/07 01:19:18;;;;;;;16.90;11.13;;;3.00;99.90;;;;;;6209706;23;20401;-57
2023/12/07 01:21:45;;;;;;;21.30;9.03;;;3.00;99.90;;;;;;6209932;23;20396;-57
2023/12/07 01:24:12;;;;;;;16.10;9.10;;;3.00;99.90;;;;;;6209511;23;20384;-57
2023/12/07 01:26:40;;;;;;;16.00;9.47;;;2.90;99.90;;;;;;6209283;23;20448;-53
2023/12/07 01:29:07;;;;;;;15.20;8.10;;;2.90;99.90;;;;;;6208721;23;20424;-55
2023/12/07 01:31:34;;;;;;;11.60;8.73;;;2.90;99.90;;;;;;6209121;23;20405;-55
2023/12/07 01:34:00;;;;;;;14.83;10.40;;;2.90;99.90;;;;;;6209105;23;20415;-54
2023/12/07 01:36:27;;;;;;;19.30;11.30;;;3.00;99.90;;;;;;6209198;23;20436;-50
2023/12/07 01:38:54;;;;;;;17.50;11.47;;;3.00;99.90;;;;;;6209490;23;20416;-53
2023/12/07 01:41:21;;;;;;;15.80;9.40;;;3.00;99.90;;;;;;6209937;23;20413;-49
2023/12/07 01:43:49;;;;;;;17.77;10.33;;;3.00;99.90;;;;;;6209426;23;20400;-55
2023/12/07 01:46:17;;;;;;;16.67;9.53;;;3.00;99.90;;;;;;6209879;23;20404;-50
2023/12/07 01:48:48;;;;;;;16.40;9.70;;;3.00;99.90;;;;;;6209658;23;20412;-52
2023/12/07 01:51:16;;;;;;;14.67;7.67;;;3.00;99.90;;;;;;6209231;23;20400;-58
2023/12/07 01:53:43;;;;;;;16.63;9.53;;;3.00;99.90;;;;;;6209489;23;20432;-60
2023/12/07 01:56:12;;;;;;;16.47;8.53;;;3.00;99.90;;;;;;6210536;23;20494;-54
2023/12/07 01:58:39;;;;;;;14.97;9.97;;;3.00;99.90;;;;;;6210964;23;20412;-59
2023/12/07 02:01:07;;;;;;;18.37;9.47;;;2.90;99.90;;;;;;6211091;23;20417;-61
2023/12/07 02:03:34;;;;;;;17.47;10.80;;;2.90;99.90;;;;;;6211555;23;20429;-54
2023/12/07 02:06:02;;;;;;;14.87;9.60;;;2.90;99.90;;;;;;6207937;23;20503;-49
2023/12/07 02:08:29;;;;;;;14.70;8.53;;;2.90;99.90;;;;;;6213765;23;20424;-50
2023/12/07 02:10:56;;;;;;;19.30;9.80;;;2.90;99.90;;;;;;6213300;23;20405;-51
2023/12/07 02:13:23;;;;;;;13.93;8.50;;;2.90;99.90;;;;;;6213610;23;20389;-52
2023/12/07 02:15:51;;;;;;;19.00;11.00;;;2.90;99.90;;;;;;6212768;23;20423;-49
2023/12/07 02:18:26;;;;;;;16.70;9.70;;;3.00;99.90;;;;;;6212000;23;20496;-50
2023/12/07 02:21:02;;;;;;;19.80;9.17;;;3.00;99.90;;;;;;6212465;23;20372;-57
2023/12/07 02:23:30;;;;;;;13.47;8.77;;;3.00;99.90;;;;;;6212567;23;20436;-47
2023/12/07 02:26:03;;;;;;;15.50;9.33;;;2.90;99.90;;;;;;6212328;23;20392;-48
2023/12/07 02:28:31;;;;;;;14.97;8.57;;;2.90;99.90;;;;;;6212558;23;20400;-49
2023/12/07 02:30:58;;;;;;;18.07;10.60;;;2.90;99.90;;;;;;6212300;23;20424;-48
2023/12/07 02:33:25;;;;;;;19.23;10.57;;;3.00;99.90;;;;;;6212176;23;20405;-51
2023/12/07 02:35:52;;;;;;;21.77;10.50;;;3.00;99.90;;;;;;6212570;23;20471;-50
2023/12/07 02:38:25;;;;;;;16.30;9.90;;;2.90;99.90;;;;;;6211452;23;20381;-50
2023/12/07 02:40:54;;;;;;;13.53;9.03;;;2.90;99.90;;;;;;6212583;23;20425;-49
2023/12/07 02:43:22;;;;;;;16.17;10.23;;;2.90;99.90;;;;;;6211748;23;20381;-50
2023/12/07 02:45:52;;;;;;;14.33;9.50;;;2.90;99.90;;;;;;6212183;23;20401;-49
2023/12/07 02:48:21;;;;;;;21.00;10.07;;;2.90;99.90;;;;;;6211429;23;20429;-50
2023/12/07 02:50:48;;;;;;;12.80;8.87;;;2.90;99.90;;;;;;6211169;23;20439;-56
2023/12/07 02:53:15;;;;;;;18.70;11.33;;;2.90;99.90;;;;;;6211497;23;20425;-54
2023/12/07 02:55:42;;;;;;;15.50;9.13;;;2.90;99.90;;;;;;6211301;23;20432;-51
2023/12/07 02:58:09;;;;;;;14.63;9.27;;;2.90;99.90;;;;;;6211350;23;20428;-54
2023/12/07 03:00:35;;;;;;;15.47;9.57;;;3.00;99.90;;;;;;6210629;23;20401;-52
2023/12/07 03:03:04;;;;;;;17.50;9.60;;;3.00;99.90;;;;;;6211442;23;20409;-54
2023/12/07 03:05:30;;;;;;;20.93;11.07;;;3.00;99.90;;;;;;6222290;23;20446;-58
2023/12/07 03:07:57;;;;;;;14.07;8.30;;;3.00;99.90;;;;;;6240684;23;20411;-56
2023/12/07 03:10:24;;;;;;;16.07;8.90;;;3.00;99.90;;;;;;6241445;23;20427;-55
2023/12/07 03:12:51;;;;;;;17.70;10.20;;;3.00;99.90;;;;;;6240962;23;20430;-57
2023/12/07 03:15:18;;;;;;;15.30;8.90;;;3.00;99.90;;;;;;6241099;23;20408;-53
2023/12/07 03:17:45;;;;;;;17.47;11.10;;;3.00;99.90;;;;;;6241311;23;20371;-50
2023/12/07 03:20:14;;;;;;;19.87;10.20;;;3.00;99.90;;;;;;6241161;23;20392;-54
2023/12/07 03:22:41;;;;;;;17.30;9.90;;;3.00;99.90;;;;;;6240940;23;20439;-57
2023/12/07 03:25:08;;;;;;;17.83;10.37;;;3.00;99.90;;;;;;6241065;23;20396;-58
2023/12/07 03:27:35;;;;;;;22.50;10.77;;;3.00;99.90;;;;;;6241272;23;20427;-52
2023/12/07 03:30:02;;;;;;;12.93;8.20;;;3.00;99.90;;;;;;6241110;23;20415;-57
2023/12/07 03:32:29;;;;;;;14.40;9.70;;;3.00;99.90;;;;;;6241067;23;20487;-54
2023/12/07 03:34:56;;;;;;;20.00;9.57;;;3.00;99.90;;;;;;6240709;23;20368;-55
2023/12/07 03:37:24;;;;;;;17.70;10.20;;;3.00;99.90;;;;;;6240991;23;20453;-54
2023/12/07 03:39:51;;;;;;;17.93;9.60;;;3.00;99.90;;;;;;6240595;23;20408;-57
2023/12/07 03:42:18;;;;;;;15.97;10.00;;;3.00;99.90;;;;;;6240441;23;20404;-56
2023/12/07 03:44:45;;;;;;;15.80;9.60;;;3.00;99.90;;;;;;6240786;23;20424;-56
2023/12/07 03:47:12;;;;;;;18.83;9.97;;;3.00;99.90;;;;;;6241185;23;20434;-54
2023/12/07 03:49:41;;;;;;;16.37;9.27;;;3.00;99.90;;;;;;6241030;23;20431;-53
2023/12/07 03:52:08;;;;;;;19.93;11.87;;;3.10;99.90;;;;;;6241099;23;20439;-51
2023/12/07 03:54:37;;;;;;;19.63;10.80;;;3.00;99.90;;;;;;6240189;23;20400;-52
2023/12/07 03:57:04;;;;;;;17.83;9.97;;;3.00;99.90;;;;;;6240973;23;20451;-54
2023/12/07 03:59:31;;;;;;;20.00;10.27;;;3.00;99.90;;;;;;6240962;23;20399;-52
2023/12/07 04:01:58;;;;;;;17.57;10.07;;;2.90;99.90;;;;;;6240999;23;20412;-54
2023/12/07 04:04:25;;;;;;;19.47;10.97;;;2.90;99.90;;;;;;6241422;23;20415;-51
2023/12/07 04:06:52;;;;;;;19.87;10.40;;;2.90;99.90;;;;;;6240705;23;20435;-52
2023/12/07 04:09:18;;;;;;;18.10;10.43;;;2.90;99.90;;;;;;6239958;23;20411;-53
2023/12/07 04:11:47;;;;;;;18.57;10.47;;;2.90;99.90;;;;;;6240858;23;20432;-50
2023/12/07 04:14:15;;;;;;;14.87;10.67;;;2.90;99.90;;;;;;6240878;23;20452;-56
2023/12/07 04:16:41;;;;;;;23.10;10.80;;;2.90;99.90;;;;;;6240285;23;20444;-59
2023/12/07 04:19:08;;;;;;;20.63;11.37;;;3.00;99.90;;;;;;6239892;23;20399;-57
2023/12/07 04:21:35;;;;;;;19.23;10.93;;;2.90;99.90;;;;;;6239860;23;20404;-55
2023/12/07 04:24:02;;;;;;;21.87;10.80;;;2.90;99.90;;;;;;6240385;23;20415;-54
2023/12/07 04:26:29;;;;;;;19.07;10.60;;;3.00;99.90;;;;;;6240325;23;20412;-55
2023/12/07 04:28:57;;;;;;;20.80;11.07;;;3.00;99.90;;;;;;6240049;23;20428;-58
2023/12/07 04:31:24;;;;;;;16.87;10.97;;;3.00;99.90;;;;;;6240315;23;20411;-51
2023/12/07 04:33:51;;;;;;;19.57;11.70;;;3.00;99.90;;;;;;6241076;23;20419;-48
2023/12/07 04:36:18;;;;;;;17.33;10.50;;;3.00;99.90;;;;;;6240859;23;20427;-51
2023/12/07 04:38:46;;;;;;;26.53;13.57;;;3.00;99.90;;;;;;6241041;23;20427;-52
2023/12/07 04:41:13;;;;;;;20.67;11.70;;;3.00;99.90;;;;;;6241388;23;20392;-52
2023/12/07 04:43:40;;;;;;;18.80;11.10;;;3.00;99.90;;;;;;6240575;23;20435;-48
2023/12/07 04:46:08;;;;;;;23.97;11.43;;;3.00;99.90;;;;;;6240483;23;20620;-53
2023/12/07 04:48:35;;;;;;;20.70;12.17;;;3.00;99.90;;;;;;6240392;23;20439;-53
2023/12/07 04:51:02;;;;;;;21.03;11.83;;;2.90;99.90;;;;;;6240335;23;20412;-57
2023/12/07 04:53:29;;;;;;;18.63;10.50;;;2.80;99.90;;;;;;6240403;23;20401;-52
2023/12/07 04:55:56;;;;;;;29.47;12.73;;;2.80;99.90;;;;;;6239919;23;20446;-55
2023/12/07 04:58:22;;;;;;;19.03;11.80;;;2.80;99.90;;;;;;6239700;23;20411;-55
2023/12/07 05:00:49;;;;;;;21.03;12.20;;;2.80;99.90;;;;;;6240184;23;20400;-56
2023/12/07 05:03:17;;;;;;;25.33;11.90;;;2.80;99.90;;;;;;6240563;23;20438;-54
2023/12/07 05:05:44;;;;;;;23.70;12.03;;;2.80;99.90;;;;;;6239636;23;20415;-54
2023/12/07 05:08:11;;;;;;;16.03;10.77;;;2.80;99.90;;;;;;6240580;23;20427;-52
2023/12/07 05:10:38;;;;;;;21.27;11.80;;;2.80;99.90;;;;;;6240492;23;20403;-56
2023/12/07 05:13:05;;;;;;;22.87;11.00;;;2.80;99.90;;;;;;6240032;23;20431;-58
2023/12/07 05:15:32;;;;;;;22.63;10.83;;;2.70;99.90;;;;;;6239948;23;20380;-56
2023/12/07 05:17:58;;;;;;;30.30;14.27;;;2.70;99.90;;;;;;6240367;23;20435;-51
2023/12/07 05:20:28;;;;;;;22.57;11.30;;;2.80;99.90;;;;;;6239889;23;20411;-53
2023/12/07 05:22:55;;;;;;;27.90;12.97;;;2.70;99.90;;;;;;6240261;23;20465;-55
2023/12/07 05:25:21;;;;;;;21.07;11.37;;;2.70;99.90;;;;;;6239862;23;20420;-53
2023/12/07 05:27:48;;;;;;;19.17;10.90;;;2.70;99.90;;;;;;6240057;23;20411;-54
2023/12/07 05:30:15;;;;;;;26.80;13.43;;;2.70;99.90;;;;;;6240681;23;20439;-52
2023/12/07 05:32:42;;;;;;;31.20;12.70;;;2.80;99.90;;;;;;6242593;23;20416;-54
2023/12/07 05:35:09;;;;;;;23.50;11.50;;;2.80;99.90;;;;;;6242184;23;20400;-49
2023/12/07 05:37:38;;;;;;;28.67;11.67;;;2.90;99.90;;;;;;6242078;23;20451;-54
2023/12/07 05:40:06;;;;;;;27.70;13.90;;;2.90;99.90;;;;;;6241595;23;20430;-56
2023/12/07 05:42:33;;;;;;;23.17;12.20;;;2.90;99.90;;;;;;6242348;23;20455;-55
2023/12/07 05:45:00;;;;;;;23.63;13.00;;;3.00;99.90;;;;;;6241316;23;20415;-58
2023/12/07 05:47:27;;;;;;;24.87;13.70;;;3.00;99.90;;;;;;6241561;23;20435;-57
2023/12/07 05:49:57;;;;;;;23.10;10.20;;;3.00;99.90;;;;;;6241477;23;20403;-55
2023/12/07 05:52:24;;;;;;;26.30;14.90;;;3.00;99.90;;;;;;6241776;23;20440;-54
2023/12/07 05:54:52;;;;;;;24.97;12.37;;;3.00;99.90;;;;;;6242015;23;20385;-54
2023/12/07 05:57:19;;;;;;;23.50;11.63;;;3.00;99.90;;;;;;6241759;23;20459;-57
2023/12/07 05:59:46;;;;;;;31.80;13.60;;;3.00;99.90;;;;;;6241836;23;20398;-54
2023/12/07 06:02:13;;;;;;;34.00;13.87;;;3.00;99.90;;;;;;6242110;23;20408;-57
2023/12/07 06:04:40;;;;;;;28.87;14.17;;;3.10;99.90;;;;;;6241544;23;20424;-51
2023/12/07 06:07:06;;;;;;;28.57;13.93;;;3.10;99.90;;;;;;6241620;23;20387;-55
2023/12/07 06:09:34;;;;;;;32.43;14.57;;;3.10;99.90;;;;;;6241852;23;20428;-54
2023/12/07 06:12:02;;;;;;;22.40;10.50;;;3.00;99.90;;;;;;6241648;23;20462;-52
2023/12/07 06:14:32;;;;;;;25.60;13.47;;;3.00;99.90;;;;;;6241114;23;20411;-54
2023/12/07 06:16:59;;;;;;;24.37;10.50;;;3.00;99.90;;;;;;6241544;23;20424;-57
2023/12/07 06:19:26;;;;;;;23.57;12.47;;;3.10;99.90;;;;;;6241636;23;20483;-52
2023/12/07 06:21:53;;;;;;;30.90;13.77;;;3.10;99.90;;;;;;6241825;23;20416;-52
2023/12/07 06:24:23;;;;;;;24.07;12.47;;;3.00;99.90;;;;;;6242224;23;20403;-51
2023/12/07 06:26:49;;;;;;;16.43;9.83;;;3.00;99.90;;;;;;6241281;23;20431;-51
2023/12/07 06:29:18;;;;;;;20.43;10.90;;;3.10;99.90;;;;;;6242127;23;20422;-50
2023/12/07 06:31:47;;;;;;;38.83;14.17;;;3.10;99.90;;;;;;6241620;23;20431;-50
2023/12/07 06:34:14;;;;;;;31.03;16.13;;;3.10;99.90;;;;;;6241601;23;20396;-51
2023/12/07 06:36:41;;;;;;;52.27;14.40;;;3.10;99.90;;;;;;6241418;23;20454;-57
2023/12/07 06:39:07;;;;;;;33.83;14.77;;;3.10;99.90;;;;;;6241901;23;20411;-53
2023/12/07 06:41:34;;;;;;;38.27;15.90;;;3.10;99.90;;;;;;6241002;23;20426;-56
2023/12/07 06:44:03;;;;;;;24.07;12.17;;;3.10;99.90;;;;;;6240938;23;20427;-54
2023/12/07 06:46:31;;;;;;;60.40;15.50;;;3.10;99.90;;;;;;6241025;23;20408;-58
2023/12/07 06:48:58;;;;;;;53.13;14.63;;;3.10;99.90;;;;;;6241190;23;20439;-50
2023/12/07 06:51:25;;;;;;;72.73;14.03;;;3.10;99.90;;;;;;6241283;23;20404;-52
2023/12/07 06:53:51;;;;;;;53.47;14.97;;;3.10;99.90;;;;;;6241649;23;21403;-52
2023/12/07 06:56:18;;;;;;;41.23;15.13;;;3.10;99.90;;;;;;6240996;23;20432;-50
2023/12/07 06:58:45;;;;;;;43.20;15.23;;;3.10;99.90;;;;;;6241482;23;20415;-55
2023/12/07 07:01:13;;;;;;;33.03;12.60;;;3.10;99.90;;;;;;6241608;23;20380;-54
2023/12/07 07:03:41;;;;;;;35.00;14.20;;;3.10;99.90;;;;;;6241297;23;20443;-51
2023/12/07 07:06:09;;;;;;;37.63;13.10;;;3.10;99.90;;;;;;6241356;23;20411;-51
2023/12/07 07:08:36;;;;;;;25.93;11.13;;;3.20;99.90;;;;;;6241796;23;20384;-51
2023/12/07 07:11:03;;;;;;;20.03;11.03;;;3.10;99.90;;;;;;6241892;23;20415;-56
2023/12/07 07:13:30;;;;;;;33.70;13.53;;;3.10;99.90;;;;;;6242452;23;20400;-57
2023/12/07 07:15:57;;;;;;;36.10;13.40;;;3.10;99.90;;;;;;6241769;23;20411;-54
2023/12/07 07:18:25;;;;;;;38.20;12.07;;;3.10;99.90;;;;;;6238031;23;20444;-58
2023/12/07 07:20:53;;;;;;;32.77;13.07;;;3.00;99.90;;;;;;6232475;23;20427;-54
2023/12/07 07:23:20;;;;;;;26.97;12.13;;;3.00;99.90;;;;;;6232668;23;20423;-54
2023/12/07 07:25:47;;;;;;;26.37;12.33;;;3.10;99.90;;;;;;6231675;23;20408;-58
2023/12/07 07:28:14;;;;;;;22.83;11.60;;;3.10;99.90;;;;;;6239371;23;20762;-51
2023/12/07 07:30:41;;;;;;;26.40;11.93;;;3.10;99.90;;;;;;6240393;23;20404;-54
2023/12/07 07:33:08;;;;;;;43.37;13.50;;;3.10;99.90;;;;;;6240217;23;20431;-56
2023/12/07 07:35:36;;;;;;;37.37;14.83;;;3.10;99.90;;;;;;6240129;23;20435;-54
2023/12/07 07:38:04;;;;;;;43.03;13.37;;;3.10;99.90;;;;;;6238964;23;20432;-55
2023/12/07 07:40:31;;;;;;;64.63;15.67;;;3.20;99.90;;;;;;6240419;23;20404;-56
2023/12/07 07:43:05;;;;;;;74.23;16.00;;;3.20;99.90;;;;;;6241099;23;20408;-53
2023/12/07 07:45:35;;;;;;;23.57;10.40;;;3.20;99.90;;;;;;6240992;23;20775;-57
2023/12/07 07:48:02;;;;;;;33.53;12.83;;;3.20;99.90;;;;;;6239979;23;20434;-56
2023/12/07 07:50:29;;;;;;;40.53;14.37;;;3.10;99.90;;;;;;6239804;23;20434;-54
2023/12/07 07:52:56;;;;;;;43.93;13.60;;;3.20;99.90;;;;;;6239747;23;20439;-55
2023/12/07 07:55:24;;;;;;;35.77;14.37;;;3.20;99.90;;;;;;6239375;23;20411;-58
2023/12/07 07:57:51;;;;;;;25.13;11.07;;;3.20;99.90;;;;;;6240273;23;20447;-54
2023/12/07 08:00:19;;;;;;;31.97;13.87;;;3.30;99.90;;;;;;6239871;23;20412;-50
2023/12/07 08:02:46;;;;;;;28.90;13.00;;;3.30;99.90;;;;;;6240582;23;20471;-57
2023/12/07 08:05:13;;;;;;;25.40;12.40;;;3.40;99.90;;;;;;6239912;23;20412;-57
2023/12/07 08:07:41;;;;;;;26.03;13.20;;;3.40;99.90;;;;;;6240154;23;20404;-54
2023/12/07 08:10:09;;;;;;;23.30;11.57;;;3.40;99.90;;;;;;6240371;23;20625;-58
2023/12/07 08:12:40;;;;;;;28.37;13.10;;;3.40;99.90;;;;;;6240040;23;20491;-56
2023/12/07 08:15:10;;;;;;;26.97;11.70;;;3.40;99.90;;;;;;6240239;23;20387;-48
2023/12/07 08:17:39;;;;;;;25.40;11.67;;;3.40;99.90;;;;;;6239482;23;20502;-53
2023/12/07 08:20:10;;;;;;;16.87;10.03;;;3.40;99.90;;;;;;6238289;23;20464;-51
2023/12/07 08:22:37;;;;;;;30.10;12.73;;;3.40;99.90;;;;;;6239695;23;20408;-56
2023/12/07 08:25:08;;;;;;;25.07;11.53;;;3.40;99.90;;;;;;6240239;23;20428;-52
2023/12/07 08:27:37;;;;;;;30.63;12.40;;;3.40;99.90;;;;;;6238431;23;20396;-51
2023/12/07 08:30:09;;;;;;;24.63;11.37;;;3.30;99.90;;;;;;6238787;23;20428;-55
2023/12/07 08:32:36;;;;;;;21.00;10.20;;;3.30;99.90;;;;;;6239555;23;20407;-57
2023/12/07 08:35:05;;;;;;;22.70;11.10;;;3.30;99.90;;;;;;6239604;23;20673;-57
2023/12/07 08:37:32;;;;;;;28.00;13.90;;;3.30;99.90;;;;;;6239267;23;20443;-53
2023/12/07 08:39:59;;;;;;;27.73;14.10;;;3.30;99.90;;;;;;6239136;23;20422;-54
2023/12/07 08:42:26;;;;;;;24.20;12.00;;;3.30;99.90;;;;;;6240037;23;20411;-49
2023/12/07 08:44:54;;;;;;;30.27;15.90;;;3.30;99.90;;;;;;6239955;23;20408;-52
2023/12/07 08:47:21;;;;;;;23.90;11.90;;;3.30;99.90;;;;;;6239992;23;20446;-54
2023/12/07 08:49:48;;;;;;;25.73;12.83;;;3.30;99.90;;;;;;6239982;23;20434;-56
2023/12/07 08:52:15;;;;;;;27.50;13.00;;;3.30;99.90;;;;;;6239826;23;20412;-55
2023/12/07 08:54:42;;;;;;;27.17;12.43;;;3.30;99.90;;;;;;6240273;23;20376;-50
2023/12/07 08:57:09;;;;;;;19.97;11.53;;;3.40;99.90;;;;;;6240561;23;20423;-53
2023/12/07 08:59:36;;;;;;;30.13;13.10;;;3.40;99.90;;;;;;6240894;23;20408;-48
2023/12/07 09:02:04;;;;;;;22.00;11.23;;;3.40;99.90;;;;;;6240510;23;20416;-51
2023/12/07 09:04:31;;;;;;;24.30;11.53;;;3.40;99.90;;;;;;6239711;23;20424;-51
2023/12/07 09:06:58;;;;;;;27.20;11.40;;;3.50;99.90;;;;;;6240203;23;20412;-51
2023/12/07 09:09:28;;;;;;;28.73;11.83;;;3.50;99.90;;;;;;6239672;23;20415;-52
2023/12/07 09:11:55;;;;;;;28.70;11.47;;;3.50;99.90;;;;;;6239934;23;20487;-53
2023/12/07 09:14:22;;;;;;;40.90;13.17;;;3.50;99.90;;;;;;6240027;23;20408;-55
2023/12/07 09:16:49;;;;;;;25.90;11.90;;;3.60;99.90;;;;;;6239964;23;20443;-54
2023/12/07 09:19:17;;;;;;;35.77;14.23;;;3.60;99.90;;;;;;6240348;23;20420;-52
2023/12/07 09:21:44;;;;;;;28.47;12.27;;;3.60;99.90;;;;;;6240097;23;20435;-51
2023/12/07 09:24:11;;;;;;;22.17;11.97;;;3.60;99.90;;;;;;6240113;23;20415;-52
2023/12/07 09:26:38;;;;;;;20.63;13.37;;;3.70;99.90;;;;;;6239849;23;20467;-52
2023/12/07 09:29:05;;;;;;;22.20;12.80;;;3.60;99.90;;;;;;6239984;23;20443;-52
2023/12/07 09:31:32;;;;;;;24.07;11.47;;;3.60;99.90;;;;;;6239605;23;20400;-56
2023/12/07 09:33:59;;;;;;;27.00;12.07;;;3.60;99.90;;;;;;6239481;23;20400;-51
2023/12/07 09:36:28;;;;;;;26.40;11.70;;;3.60;99.90;;;;;;6239132;23;20400;-52
2023/12/07 09:38:54;;;;;;;19.90;11.30;;;4.10;99.90;;;;;;6239702;23;20454;-55
2023/12/07 09:41:23;;;;;;;18.30;8.87;;;3.60;99.90;;;;;;6239683;23;20400;-55
2023/12/07 09:43:50;;;;;;;21.03;10.50;;;3.70;99.90;;;;;;6239428;23;20428;-54
2023/12/07 09:46:17;;;;;;;18.50;10.00;;;3.60;99.90;;;;;;6239461;23;20427;-53
2023/12/07 09:48:48;;;;;;;29.37;11.23;;;3.60;99.90;;;;;;6239422;23;20424;-49
2023/12/07 09:51:16;;;;;;;14.53;6.90;;;3.50;99.90;;;;;;6239716;23;20380;-55
2023/12/07 09:53:49;;;;;;;20.97;8.77;;;3.40;99.90;;;;;;6240677;23;20400;-54
2023/12/07 09:56:16;;;;;;;22.57;10.97;;;3.40;99.90;;;;;;6240293;23;20392;-55
2023/12/07 09:58:43;;;;;;;18.53;11.50;;;3.30;99.90;;;;;;6240066;23;20458;-54
2023/12/07 10:01:13;;;;;;;24.23;10.37;;;3.30;99.90;;;;;;6240417;23;20415;-53
2023/12/07 10:03:40;;;;;;;25.90;13.40;;;3.20;99.90;;;;;;6241107;23;20415;-53
2023/12/07 10:06:07;;;;;;;25.33;10.30;;;3.10;99.90;;;;;;6240742;23;20412;-54
2023/12/07 10:08:37;;;;;;;24.43;10.73;;;3.20;99.90;;;;;;6241042;23;20392;-51
2023/12/07 10:11:08;;;;;;;23.63;10.97;;;3.20;99.90;;;;;;6240928;23;20495;-49
2023/12/07 10:13:38;;;;;;;23.33;10.67;;;3.20;99.90;;;;;;6240677;23;20380;-52
2023/12/07 10:16:14;;;;;;;21.57;10.97;;;3.20;99.90;;;;;;6240807;23;20403;-51
2023/12/07 10:18:42;;;;;;;20.37;10.70;;;3.20;99.90;;;;;;6241773;23;20447;-57
2023/12/07 10:21:13;;;;;;;26.53;11.40;;;3.10;99.90;;;;;;6241561;23;20410;-59
2023/12/07 10:23:43;;;;;;;22.63;12.40;;;3.20;99.90;;;;;;6241793;23;20507;-56
2023/12/07 10:26:11;;;;;;;24.37;11.53;;;3.20;99.90;;;;;;6241570;23;20468;-51
2023/12/07 10:28:40;;;;;;;21.30;12.07;;;3.20;99.90;;;;;;6241513;23;20408;-51
2023/12/07 10:31:10;;;;;;;22.53;10.03;;;3.20;99.90;;;;;;6241722;23;20399;-58
2023/12/07 10:33:37;;;;;;;23.63;12.50;;;3.20;99.90;;;;;;6241508;23;20439;-51
2023/12/07 10:36:06;;;;;;;23.03;13.43;;;3.20;99.90;;;;;;6241516;23;20396;-56
2023/12/07 10:38:33;;;;;;;26.57;11.10;;;3.30;99.90;;;;;;6240819;23;20439;-54
2023/12/07 10:41:05;;;;;;;21.17;10.87;;;3.30;99.90;;;;;;6241139;23;20408;-51
2023/12/07 10:43:37;;;;;;;25.20;11.83;;;3.40;99.90;;;;;;6241122;23;20368;-50
2023/12/07 10:46:06;;;;;;;23.57;10.60;;;3.40;99.90;;;;;;6241620;23;20432;-54
2023/12/07 10:48:34;;;;;;;23.00;12.07;;;3.50;99.90;;;;;;6241471;23;20407;-55
2023/12/07 10:51:04;;;;;;;19.70;11.03;;;3.50;99.90;;;;;;6240845;23;20436;-57
2023/12/07 10:53:40;;;;;;;21.70;12.13;;;3.60;99.90;;;;;;6241844;23;20408;-54
2023/12/07 10:56:11;;;;;;;21.70;11.97;;;3.60;99.90;;;;;;6240785;23;20475;-58
2023/12/07 10:58:41;;;;;;;19.93;9.47;;;3.60;99.90;;;;;;6240639;23;20428;-54
2023/12/07 11:01:09;;;;;;;21.57;10.00;;;3.70;99.90;;;;;;6240668;23;20408;-55
2023/12/07 11:03:37;;;;;;;20.80;9.97;;;3.70;99.90;;;;;;6241056;23;20411;-55
2023/12/07 11:06:05;;;;;;;24.23;10.40;;;3.80;99.90;;;;;;6240921;23;20416;-51
2023/12/07 11:09:05;;;;;;;17.63;9.67;;;3.80;99.90;;;;;;6242190;23;20404;-57
2023/12/07 11:11:48;;;;;;;23.80;11.13;;;3.80;99.90;;;;;;6121004;23;20396;-53
2023/12/07 11:14:18;;;;;;;25.83;9.97;;;3.90;99.90;;;;;;6240111;23;20419;-52
2023/12/07 11:17:13;;;;;;;16.73;8.67;;;3.90;99.90;;;;;;6241911;23;20508;-58
2023/12/07 11:20:15;;;;;;;20.37;10.17;;;3.90;99.90;;;;;;6240081;23;20454;-56
2023/12/07 11:22:51;;;;;;;22.80;11.43;;;3.80;99.90;;;;;;6241229;23;20435;-57
2023/12/07 11:25:38;;;;;;;28.73;10.60;;;3.80;99.90;;;;;;6239020;23;20428;-55
2023/12/07 11:28:07;;;;;;;22.83;10.90;;;3.90;99.90;;;;;;6242033;23;20368;-55
2023/12/07 11:30:49;;;;;;;14.73;9.47;;;3.80;99.90;;;;;;6242269;23;20512;-54
2023/12/07 11:33:16;;;;;;;20.10;10.37;;;3.80;99.90;;;;;;6241754;23;20380;-53
2023/12/07 11:36:06;;;;;;;22.10;11.50;;;3.80;99.90;;;;;;6241562;23;20483;-51
2023/12/07 11:38:33;;;;;;;22.43;10.80;;;3.80;99.90;;;;;;6241253;23;20471;-56
2023/12/07 11:41:00;;;;;;;21.77;12.10;;;3.80;99.90;;;;;;6240777;23;20434;-53
2023/12/07 11:43:46;;;;;;;20.27;10.97;;;3.80;99.90;;;;;;6240174;23;20419;-53
2023/12/07 11:46:15;;;;;;;20.20;10.73;;;3.80;99.90;;;;;;6241280;23;20447;-53
2023/12/07 11:48:49;;;;;;;20.97;10.30;;;3.90;99.90;;;;;;6239399;23;20412;-51
2023/12/07 11:51:26;;;;;;;21.30;10.30;;;3.90;99.90;;;;;;6239795;23;20398;-54
2023/12/07 11:53:53;;;;;;;22.33;10.60;;;3.90;99.90;;;;;;6239235;23;20432;-54
2023/12/07 11:56:21;;;;;;;23.53;13.50;;;3.90;99.90;;;;;;6240817;23;20420;-52
2023/12/07 11:58:52;;;;;;;18.93;10.03;;;3.90;99.90;;;;;;6240222;23;20448;-59
2023/12/07 12:01:52;;;;;;;20.87;11.40;;;3.80;99.90;;;;;;6240947;23;20530;-49
2023/12/07 12:04:22;;;;;;;22.07;11.70;;;3.80;99.90;;;;;;6238390;23;20408;-45
2023/12/07 12:06:50;;;;;;;24.43;11.80;;;3.80;99.90;;;;;;6240015;23;20419;-57
2023/12/07 12:09:17;;;;;;;29.17;14.90;;;3.70;99.90;;;;;;6241074;23;20427;-56
2023/12/07 12:11:48;;;;;;;18.33;9.60;;;3.70;99.90;;;;;;6240433;23;20438;-56
2023/12/07 12:14:19;;;;;;;18.30;9.87;;;3.70;99.90;;;;;;6240882;23;20419;-55
2023/12/07 12:16:47;;;;;;;24.97;12.93;;;3.70;99.90;;;;;;6241624;23;20427;-51
2023/12/07 12:19:15;;;;;;;20.50;10.67;;;3.70;99.90;;;;;;6241300;23;20450;-55
2023/12/07 12:21:48;;;;;;;28.40;14.33;;;3.70;99.90;;;;;;6239582;23;20428;-53
2023/12/07 12:24:15;;;;;;;24.87;12.07;;;3.70;99.90;;;;;;6241411;23;20407;-50
2023/12/07 12:26:43;;;;;;;27.60;14.47;;;3.70;99.90;;;;;;6241525;23;20400;-51
2023/12/07 12:29:11;;;;;;;25.00;12.27;;;3.80;99.90;;;;;;6241086;23;20403;-55
2023/12/07 12:31:38;;;;;;;28.77;13.93;;;3.80;99.90;;;;;;6240437;23;20399;-51
2023/12/07 12:34:08;;;;;;;23.57;12.97;;;3.80;99.90;;;;;;6239580;23;20388;-44
2023/12/07 12:36:35;;;;;;;26.97;13.97;;;3.80;99.90;;;;;;6242322;23;20415;-64
2023/12/07 12:39:05;;;;;;;26.60;13.53;;;3.80;99.90;;;;;;6242439;23;20428;-64
2023/12/07 12:41:41;;;;;;;25.97;13.17;;;3.70;99.90;;;;;;6243690;23;20392;-68
2023/12/07 12:44:08;;;;;;;26.20;14.63;;;3.70;99.90;;;;;;6242659;23;20411;-66